• Join FlightAware (Why Join?)
  • Login
  • US Flag 
04:24AM EDT


 

Airport Tracker/Info


-or-


 

Live Flight TrackerFlight Track Log ✈ SWA419 ✈ 30-Apr-2013 ✈ KSAT - KDEN

Flight Track Log - Related Links

Times and Time Zones

All times are in EDT time to prevent confusion due to time zone crossing. See the SWA419 flight status page for this flight to view local times or setup timezone preferences in your user account.

Time Position Orientation Groundspeed Altitude Reporting Facility
EDT Latitude Longitude Course Direction KTS MPH feet Rate Location/Type
06:26PM 29.5733 -98.4217 38° Northeast 189 217 2,800  Level Houston Center
06:26PM 29.5847 -98.4131 33° Northeast 188 216 3,400 1,680 Climbing Houston Center
06:27PM 29.6569 -98.3986 10° North 277 319 5,000 1,200 Climbing Houston Center
06:28PM 29.7400 -98.3967 North 279 321 5,900 2,400 Climbing Houston Center
06:29PM 29.8147 -98.3964 360° North 269 310 10,000 3,180 Climbing Houston Center
06:30PM 29.9058 -98.3947 North 310 357 12,500 2,580 Climbing Houston Center
06:31PM 29.9994 -98.3942 360° North 335 386 15,400 2,880 Climbing Houston Center
06:32PM 30.1014 -98.3947 360° North 363 418 18,500 3,000 Climbing Houston Center
06:33PM 30.2144 -98.3931 North 371 427 21,600 2,520 Climbing Houston Center
06:34PM 30.3164 -98.3925 360° North 392 451 23,800 1,620 Climbing Houston Center
06:35PM 30.4319 -98.3900 North 407 468 25,000 540 Climbing Houston Center
06:37PM 30.5658 -98.3889 360° North 407 468 25,000  Level Houston Center
06:38PM 30.6811 -98.3886 360° North 408 470 25,000 60 Level Houston Center
06:39PM 30.7961 -98.3875 360° North 408 470 25,200 1,020 Climbing Houston Center
06:40PM 30.9100 -98.4117 350° North 423 487 27,200 1,800 Climbing Houston Center
06:41PM 31.0047 -98.4983 322° Northwest 430 495 29,000 1,680 Climbing Houston Center
06:42PM 31.1100 -98.5756 328° Northwest 442 509 30,700 1,800 Climbing Houston Center
06:43PM 31.2197 -98.6417 333° Northwest 441 507 32,800 1,860 Climbing Houston Center
06:44PM 31.3289 -98.7072 333° Northwest 436 502 34,600 1,560 Climbing Houston Center
06:44PM 31.4022 -98.7544 331° Northwest 435 501 35,500 1,260 Climbing Fort Worth Center
06:45PM 31.5103 -98.8217 332° Northwest 430 495 36,700 1,200 Climbing Fort Worth Center
06:46PM 31.6200 -98.8869 333° Northwest 430 495 38,000 600 Climbing Fort Worth Center
06:47PM 31.7236 -98.9519 332° Northwest 430 495 38,000  Level Fort Worth Center
06:48PM 31.8336 -99.0150 334° Northwest 430 495 38,000  Level Fort Worth Center
06:49PM 31.9411 -99.0806 333° Northwest 430 495 38,000  Level Fort Worth Center
06:50PM 32.0469 -99.1439 333° Northwest 430 495 38,000  Level Fort Worth Center
06:51PM 32.1525 -99.2097 332° Northwest 430 495 38,000  Level Fort Worth Center
06:52PM 32.2581 -99.2756 332° Northwest 430 495 38,000  Level Fort Worth Center
06:53PM 32.3633 -99.3392 333° Northwest 430 495 38,000  Level Fort Worth Center
06:54PM 32.4689 -99.4056 332° Northwest 430 495 38,000  Level Fort Worth Center
06:55PM 32.5722 -99.4719 332° Northwest 430 495 38,000  Level Fort Worth Center
06:56PM 32.6797 -99.5361 333° Northwest 430 495 38,000  Level Fort Worth Center
06:57PM 32.7892 -99.6028 333° Northwest 430 495 38,000  Level Fort Worth Center
06:58PM 32.9067 -99.6800 331° Northwest 430 495 38,000  Level Fort Worth Center
06:59PM 33.0161 -99.7472 333° Northwest 430 495 38,000  Level Fort Worth Center
07:00PM 33.1233 -99.8144 332° Northwest 430 495 38,000  Level Fort Worth Center
07:01PM 33.2286 -99.8844 331° Northwest 430 495 38,000  Level Fort Worth Center
07:02PM 33.3336 -99.9494 333° Northwest 430 495 38,000  Level Fort Worth Center
07:03PM 33.4386 -100.0197 331° Northwest 430 495 38,000  Level Fort Worth Center
07:04PM 33.5458 -100.0853 333° Northwest 430 495 38,000  Level Fort Worth Center
07:05PM 33.6528 -100.1558 331° Northwest 430 495 38,000  Level Fort Worth Center
07:06PM 33.7597 -100.2242 332° Northwest 430 495 38,000  Level Fort Worth Center
07:07PM 33.8647 -100.2925 332° Northwest 430 495 38,000  Level Fort Worth Center
07:08PM 33.9717 -100.3611 332° Northwest 430 495 38,000  Level Fort Worth Center
07:09PM 34.0786 -100.4275 333° Northwest 430 495 38,000  Level Fort Worth Center
07:11PM 34.2883 -100.5661 331° Northwest 432 497 38,000  Level Albuquerque Center
07:12PM 34.3925 -100.6350 331° Northwest 429 494 38,000  Level Albuquerque Center
07:13PM 34.4981 -100.7039 332° Northwest 430 495 38,000  Level Albuquerque Center
07:14PM 34.6042 -100.7731 332° Northwest 433 498 38,000  Level Albuquerque Center
07:16PM 34.7089 -100.8433 331° Northwest 432 497 38,000  Level Albuquerque Center
07:17PM 34.8147 -100.9122 332° Northwest 432 497 38,000  Level Albuquerque Center
07:18PM 34.9192 -100.9831 331° Northwest 433 498 38,000  Level Albuquerque Center
07:19PM 35.0461 -101.0672 332° Northwest 433 498 38,000  Level Albuquerque Center
07:20PM 35.1503 -101.1369 331° Northwest 432 497 38,000 -120 Level Albuquerque Center
07:21PM 35.2550 -101.2067 331° Northwest 432 497 37,800 -600 Descending Albuquerque Center
07:22PM 35.3592 -101.2769 331° Northwest 432 497 36,800 -900 Descending Albuquerque Center
07:23PM 35.4586 -101.3436 331° Northwest 431 496 36,000 -420 Descending Albuquerque Center
07:24PM 35.5644 -101.4158 331° Northwest 425 489 36,000  Level Albuquerque Center
07:25PM 35.6872 -101.4997 331° Northwest 423 487 36,000  Level Albuquerque Center
07:26PM 35.7900 -101.5708 331° Northwest 425 489 36,000  Level Albuquerque Center
07:27PM 35.8928 -101.6414 331° Northwest 425 489 36,000  Level Albuquerque Center
07:28PM 35.9950 -101.7092 332° Northwest 422 486 36,000  Level Albuquerque Center
07:29PM 36.0978 -101.7800 331° Northwest 423 487 36,000  Level Albuquerque Center
07:30PM 36.2008 -101.8511 331° Northwest 425 489 36,000  Level Albuquerque Center
07:31PM 36.3028 -101.9222 331° Northwest 423 487 36,000  Level Albuquerque Center
07:32PM 36.4267 -102.0061 331° Northwest 423 487 36,000  Level Albuquerque Center
07:33PM 36.5303 -102.0797 330° Northwest 427 491 36,000  Level Albuquerque Center
07:34PM 36.6322 -102.1508 331° Northwest 424 488 36,000  Level Albuquerque Center
07:35PM 36.7353 -102.2244 330° Northwest 425 489 36,000  Level Albuquerque Center
07:36PM 36.8383 -102.2964 331° Northwest 424 488 36,000  Level Albuquerque Center
07:37PM 36.9489 -102.3744 331° Northwest 435 501 36,000  Level Albuquerque Center
07:38PM 37.0656 -102.4564 331° Northwest 431 496 36,000  Level Albuquerque Center
07:39PM 37.1664 -102.5272 331° Northwest 428 493 36,000  Level Albuquerque Center
07:40PM 37.2658 -102.6003 330° Northwest 432 497 36,000  Level Albuquerque Center
07:41PM 37.3822 -102.6839 330° Northwest 432 497 36,000  Level Albuquerque Center
07:42PM 37.4814 -102.7550 330° Northwest 431 496 36,000  Level Albuquerque Center
07:43PM 37.5956 -102.8419 329° Northwest 431 496 36,000  Level Albuquerque Center
07:44PM 37.6933 -102.9147 330° Northwest 429 494 36,000  Level Albuquerque Center
07:45PM 37.7906 -102.9872 329° Northwest 426 490 36,000  Level Denver Center
07:46PM 37.9036 -103.0728 329° Northwest 425 489 36,000  Level Denver Center
07:47PM 37.9989 -103.1453 329° Northwest 421 484 36,000 -540 Level Denver Center
07:48PM 38.1122 -103.2319 329° Northwest 426 490 35,000 -960 Descending Denver Center
07:49PM 38.2100 -103.3061 329° Northwest 429 494 34,100 -960 Descending Denver Center
07:50PM 38.3100 -103.3817 329° Northwest 424 488 33,100 -1,020 Descending Denver Center
07:51PM 38.4189 -103.4672 328° Northwest 426 490 32,100 -1,020 Descending Denver Center
07:52PM 38.5169 -103.5431 329° Northwest 430 495 31,100 -1,020 Descending Denver Center
07:53PM 38.6367 -103.6328 330° Northwest 434 499 30,100 -960 Descending Denver Center
07:54PM 38.7311 -103.7092 328° Northwest 435 501 29,200 -1,020 Descending Denver Center
07:55PM 38.8467 -103.7981 329° Northwest 435 501 28,100 -1,980 Descending Denver Center
07:57PM 38.9461 -103.8775 328° Northwest 430 495 25,200 -2,880 Descending Denver Center
07:58PM 39.0442 -103.9561 328° Northwest 412 474 22,200 -2,760 Descending Denver Center
07:59PM 39.1422 -104.0300 330° Northwest 407 468 19,600 -2,280 Descending Denver Center
08:00PM 39.2442 -104.1128 328° Northwest 391 450 17,500 -1,620 Descending Denver Center
08:01PM 39.2808 -104.2161 295° West 311 358 16,300 -1,380 Descending Denver Center
08:02PM 39.3197 -104.3200 296° West 308 354 14,700 -1,560 Descending Denver Center
08:03PM 39.3836 -104.3967 317° Northwest 313 360 13,200 -1,620 Descending Denver Center
08:04PM 39.4544 -104.4803 318° Northwest 319 367 11,400 -1,620 Descending Denver Center
08:05PM 39.5131 -104.5631 313° West 315 362 10,000 -960 Descending Denver Center
08:06PM 39.5797 -104.6167 328° Northwest 279 321 9,500 -840 Descending Denver Center
08:07PM 39.6489 -104.6353 348° North 237 273 8,300 -900 Descending Denver Center
08:08PM 39.7086 -104.6453 353° North 219 252 7,700 -780 Descending Denver Center
08:09PM 39.7578 -104.6431 North 181 208 6,800 -840 Descending Denver Center
08:10PM 39.8033 -104.6419 North 153 176 6,000 -780 Descending Denver Center
08:11PM 39.8436 -104.6419 360° North 148 170 5,300 -720 Descending Denver Center
08:13PM 39.8500 -104.6667 North  Level FlightAware Approximate
08:20PM 39.8617 -104.6732 North  Level Estimated
08:21PM 39.8617 -104.6732 North  Level Estimated
08:22PM 39.8617 -104.6732 North  Level Estimated